^^
Station Historical Data
 
Daily Summary for January 18, 2020 Units:  English    Metric   Both
« Previous Day
Next Day »
Daily Weekly Monthly Yearly Custom
  Current: High: Low: Average:
Temperature: -7.1 °F 0.8 °F -10 °F -5.9 °F
Dew Point: -14.6 °F -4.5 °F -16.8 °F -12.1 °F
Humidity: 69% 78% 69% 74%
Wind Speed: 34mph 44mph 13mph 24.8mph
Wind Gust: 40mph 46mph - -
WindWNW - - WNW
Pressure: 30.36 in 30.36 in 30.10 in -
Precipitation: 0 in      
Historical Graphs
 
 
Tabular Data for January 18, 2020
Time Temperature Dew Point Pressure Wind Wind Speed Wind Gust Humidity Rainfall Rate (Hourly) solar Conditions
00:00 -0.1 °F -5.3 °F 30.10 in NW 22 mph 35 mph 78% 0 in 0.00 W/m2
00:05 0 °F -5.2 °F 30.10 in WNW 29 mph 35 mph 78% 0 in 0.00 W/m2
00:10 0.1 °F -5.4 °F 30.10 in NW 21 mph 35 mph 77% 0 in 0.00 W/m2
00:15 0.1 °F -5.1 °F 30.11 in WNW 21 mph 38 mph 78% 0 in 0.00 W/m2
00:20 0.2 °F -5 °F 30.11 in WNW 27 mph 38 mph 78% 0 in 0.00 W/m2
00:25 0.2 °F -5 °F 30.11 in WNW 26 mph 38 mph 78% 0 in 0.00 W/m2
00:30 0.2 °F -5.3 °F 30.11 in NW 33 mph 39 mph 77% 0 in 0.00 W/m2
00:35 0.2 °F -5.3 °F 30.11 in NW 29 mph 39 mph 77% 0 in 0.00 W/m2
00:40 0.3 °F -5.2 °F 30.11 in WNW 21 mph 41 mph 77% 0 in 0.00 W/m2
00:45 0.3 °F -5.5 °F 30.11 in NW 24 mph 41 mph 76% 0 in 0.00 W/m2
00:50 0.3 °F -5.2 °F 30.11 in NW 32 mph 37 mph 77% 0 in 0.00 W/m2
00:55 0.4 °F -5.4 °F 30.11 in WNW 27 mph 37 mph 76% 0 in 0.00 W/m2
01:00 0.5 °F -5.3 °F 30.11 in WNW 33 mph 40 mph 76% 0 in 0.00 W/m2
01:05 0.6 °F -5.5 °F 30.11 in NW 33 mph 40 mph 75% 0 in 0.00 W/m2
01:10 0.7 °F -5.4 °F 30.11 in NW 26 mph 42 mph 75% 0 in 0.00 W/m2
01:15 0.7 °F -5.4 °F 30.11 in NW 23 mph 42 mph 75% 0 in 0.00 W/m2
01:20 0.8 °F -5.5 °F 30.12 in NW 22 mph 42 mph 74% 0 in 0.00 W/m2
01:25 0.8 °F -5 °F 30.12 in WNW 21 mph 42 mph 76% 0 in 0.00 W/m2
01:30 0.8 °F -4.5 °F 30.13 in WNW 24 mph 37 mph 78% 0 in 0.00 W/m2
01:35 0.6 °F -5.2 °F 30.12 in NW 24 mph 37 mph 76% 0 in 0.00 W/m2
01:40 0.6 °F -5.2 °F 30.12 in NW 18 mph 38 mph 76% 0 in 0.00 W/m2
01:45 0.4 °F -5.1 °F 30.12 in WNW 30 mph 45 mph 77% 0 in 0.00 W/m2
01:50 0.3 °F -5.5 °F 30.12 in NW 32 mph 45 mph 76% 0 in 0.00 W/m2
01:55 0.1 °F -5.7 °F 30.12 in WNW 44 mph 44 mph 76% 0 in 0.00 W/m2
02:00 -0.1 °F -5.6 °F 30.13 in NW 25 mph 44 mph 77% 0 in 0.00 W/m2
02:05 -0.2 °F -6.2 °F 30.13 in NW 29 mph 46 mph 75% 0 in 0.00 W/m2
02:10 -0.3 °F -6.3 °F 30.13 in WNW 29 mph 46 mph 75% 0 in 0.00 W/m2
02:15 -0.4 °F -6.4 °F 30.14 in WNW 30 mph 42 mph 75% 0 in 0.00 W/m2
02:20 -0.7 °F -6.7 °F 30.14 in NW 35 mph 42 mph 75% 0 in 0.00 W/m2
02:25 -1 °F -7 °F 30.14 in WNW 37 mph 43 mph 75% 0 in 0.00 W/m2
02:30 -1.2 °F -7.5 °F 30.15 in WNW 24 mph 45 mph 74% 0 in 0.00 W/m2
02:35 -1.1 °F -7.4 °F 30.16 in WNW 28 mph 45 mph 74% 0 in 0.00 W/m2
02:40 -1.6 °F -7.6 °F 30.16 in WNW 21 mph 44 mph 75% 0 in 0.00 W/m2
02:45 -2.1 °F -7.8 °F 30.16 in NW 30 mph 44 mph 76% 0 in 0.00 W/m2
02:50 -2.6 °F -8.6 °F 30.17 in WNW 23 mph 40 mph 75% 0 in 0.00 W/m2
02:55 -2.8 °F -8.8 °F 30.17 in NW 31 mph 40 mph 75% 0 in 0.00 W/m2
03:00 -3.2 °F -9.4 °F 30.17 in WNW 35 mph 40 mph 74% 0 in 0.00 W/m2
03:05 -3.4 °F -9.6 °F 30.18 in NW 25 mph 37 mph 74% 0 in 0.00 W/m2
03:10 -3.4 °F -9.6 °F 30.18 in WNW 23 mph 40 mph 74% 0 in 0.00 W/m2
03:15 -3.4 °F -9.3 °F 30.18 in West 39 mph 40 mph 75% 0 in 0.00 W/m2
03:20 -3.5 °F -9.4 °F 30.18 in WNW 20 mph 40 mph 75% 0 in 0.00 W/m2
03:25 -3.7 °F -9.6 °F 30.18 in WNW 25 mph 40 mph 75% 0 in 0.00 W/m2
03:30 -4 °F -9.9 °F 30.19 in WNW 30 mph 39 mph 75% 0 in 0.00 W/m2
03:35 -4.1 °F -10 °F 30.20 in WNW 29 mph 41 mph 75% 0 in 0.00 W/m2
03:40 -4.3 °F -10.5 °F 30.20 in NW 16 mph 41 mph 74% 0 in 0.00 W/m2
03:45 -4.3 °F -10.5 °F 30.20 in WNW 30 mph 41 mph 74% 0 in 0.00 W/m2
03:50 -4.4 °F -10.3 °F 30.20 in WNW 24 mph 41 mph 75% 0 in 0.00 W/m2
03:55 -4.6 °F -10.5 °F 30.20 in WNW 24 mph 38 mph 75% 0 in 0.00 W/m2
04:00 -4.9 °F -11.1 °F 30.20 in WNW 29 mph 43 mph 74% 0 in 0.00 W/m2
04:05 -5.1 °F -11.3 °F 30.20 in NW 26 mph 43 mph 74% 0 in 0.00 W/m2
04:10 -5.1 °F -11.3 °F 30.20 in NW 16 mph 40 mph 74% 0 in 0.00 W/m2
04:15 -5.2 °F -11.4 °F 30.20 in WNW 20 mph 40 mph 74% 0 in 0.00 W/m2
04:20 -5.3 °F -11.2 °F 30.20 in WNW 20 mph 33 mph 75% 0 in 0.00 W/m2
04:25 -5.4 °F -11.6 °F 30.20 in WNW 23 mph 32 mph 74% 0 in 0.00 W/m2
04:30 -5.4 °F -11.6 °F 30.20 in WNW 26 mph 37 mph 74% 0 in 0.00 W/m2
04:35 -5.5 °F -11.7 °F 30.20 in NW 22 mph 37 mph 74% 0 in 0.00 W/m2
04:40 -5.7 °F -11.8 °F 30.21 in WNW 16 mph 35 mph 74% 0 in 0.00 W/m2
04:45 -5.9 °F -11.8 °F 30.21 in WNW 18 mph 35 mph 75% 0 in 0.00 W/m2
04:50 -6.1 °F -12.2 °F 30.21 in WNW 22 mph 35 mph 74% 0 in 0.00 W/m2
04:55 -6.2 °F -12.6 °F 30.20 in NW 25 mph 37 mph 73% 0 in 0.00 W/m2
05:00 -6.4 °F -12.8 °F 30.21 in WNW 30 mph 39 mph 73% 0 in 0.00 W/m2
05:05 -6.5 °F -12.9 °F 30.21 in WNW 29 mph 39 mph 73% 0 in 0.00 W/m2
05:10 -6.7 °F -13.1 °F 30.20 in NW 22 mph 38 mph 73% 0 in 0.00 W/m2
05:15 -6.8 °F -13.2 °F 30.20 in WNW 35 mph 38 mph 73% 0 in 0.00 W/m2
05:20 -6.9 °F -12.7 °F 30.21 in WNW 16 mph 38 mph 75% 0 in 0.00 W/m2
05:25 -7.1 °F -13.2 °F 30.22 in NW 33 mph 39 mph 74% 0 in 0.00 W/m2
05:30 -7.1 °F -13.2 °F 30.22 in West 21 mph 39 mph 74% 0 in 0.00 W/m2
05:35 -7.2 °F -13 °F 30.22 in NW 20 mph 40 mph 75% 0 in 0.00 W/m2
05:40 -7.3 °F -13.1 °F 30.22 in WNW 13 mph 40 mph 75% 0 in 0.00 W/m2
05:45 -7.4 °F -13.2 °F 30.22 in NW 27 mph 34 mph 75% 0 in 0.00 W/m2
05:50 -7.4 °F -13.2 °F 30.23 in WNW 20 mph 37 mph 75% 0 in 0.00 W/m2
05:55 -7.6 °F -13.4 °F 30.23 in West 16 mph 37 mph 75% 0 in 0.00 W/m2
06:00 -7.7 °F -13.8 °F 30.23 in WNW 25 mph 36 mph 74% 0 in 0.00 W/m2
06:05 -7.8 °F -13.9 °F 30.23 in NNW 18 mph 36 mph 74% 0 in 0.00 W/m2
06:10 -7.9 °F -13.7 °F 30.23 in NNW 23 mph 32 mph 75% 0 in 0.00 W/m2
06:15 -8 °F -13.8 °F 30.23 in WNW 23 mph 32 mph 75% 0 in 0.00 W/m2
06:20 -8.1 °F -13.9 °F 30.23 in WNW 26 mph 34 mph 75% 0 in 0.00 W/m2
06:25 -8.3 °F -14.4 °F 30.24 in WNW 25 mph 34 mph 74% 0 in 0.00 W/m2
06:30 -8.4 °F -14.2 °F 30.24 in WNW 16 mph 34 mph 75% 0 in 0.00 W/m2
06:35 -8.6 °F -14.7 °F 30.24 in WNW 24 mph 34 mph 74% 0 in 0.00 W/m2
06:40 -8.7 °F -14.8 °F 30.24 in West 22 mph 33 mph 74% 0 in 0.00 W/m2
06:45 -8.7 °F -14.8 °F 30.25 in WNW 32 mph 33 mph 74% 0 in 0.00 W/m2
06:50 -8.9 °F -15 °F 30.24 in WNW 32 mph 33 mph 74% 0 in 0.00 W/m2
06:55 -8.9 °F -14.7 °F 30.25 in NW 18 mph 32 mph 75% 0 in 0.00 W/m2
07:00 -9.1 °F -14.9 °F 30.25 in WNW 20 mph 32 mph 75% 0 in 0.00 W/m2
07:05 -9.1 °F -14.9 °F 30.25 in WNW 24 mph 31 mph 75% 0 in 0.00 W/m2
07:10 -9.1 °F -15.1 °F 30.25 in NW 23 mph 31 mph 74% 0 in 0.00 W/m2
07:15 -9.1 °F -14.9 °F 30.26 in WNW 23 mph 32 mph 75% 0 in 0.00 W/m2
07:20 -9.3 °F -15.1 °F 30.26 in WNW 16 mph 32 mph 75% 0 in 0.00 W/m2
07:25 -9.3 °F -15.3 °F 30.26 in NW 17 mph 33 mph 74% 0 in 0.00 W/m2
07:30 -9.4 °F -15.4 °F 30.27 in West 18 mph 33 mph 74% 0 in 0.00 W/m2
07:35 -9.4 °F -15.4 °F 30.27 in WNW 24 mph 33 mph 74% 0 in 0.00 W/m2
07:40 -9.5 °F -15.5 °F 30.26 in WNW 23 mph 33 mph 74% 0 in 0.00 W/m2
07:45 -9.5 °F -15.8 °F 30.27 in WNW 30 mph 33 mph 73% 0 in 0.00 W/m2
07:50 -9.6 °F -15.9 °F 30.27 in West 21 mph 33 mph 73% 0 in 0.00 W/m2
07:55 -9.7 °F -16 °F 30.27 in WNW 21 mph 32 mph 73% 0 in 0.00 W/m2
08:00 -9.7 °F -16 °F 30.27 in WNW 22 mph 33 mph 73% 0 in 0.00 W/m2
08:05 -9.7 °F -16 °F 30.28 in West 19 mph 33 mph 73% 0 in 0.00 W/m2
08:10 -9.8 °F -16.1 °F 30.28 in WNW 23 mph 33 mph 73% 0 in 0.00 W/m2
08:15 -9.8 °F -16.4 °F 30.29 in WNW 28 mph 37 mph 72% 0 in 0.00 W/m2
08:20 -9.9 °F -16.5 °F 30.29 in WNW 29 mph 37 mph 72% 0 in 5.00 W/m2
08:25 -9.9 °F -16.5 °F 30.29 in West 26 mph 34 mph 72% 0 in 7.00 W/m2
08:30 -10 °F -16.6 °F 30.29 in NW 17 mph 34 mph 72% 0 in 11.00 W/m2
08:35 -10 °F -16.6 °F 30.29 in NW 17 mph 34 mph 72% 0 in 12.00 W/m2
08:40 -10 °F -16.8 °F 30.29 in WNW 26 mph 35 mph 71% 0 in 16.00 W/m2
08:45 -10 °F -16.8 °F 30.29 in WNW 24 mph 35 mph 71% 0 in 19.00 W/m2
08:50 -10 °F -16.8 °F 30.29 in WNW 27 mph 35 mph 71% 0 in 21.00 W/m2
08:55 -10 °F -16.8 °F 30.30 in WNW 20 mph 35 mph 71% 0 in 25.00 W/m2
09:00 -10 °F -16.8 °F 30.30 in WNW 14 mph 30 mph 71% 0 in 30.00 W/m2
09:05 -10 °F -16.8 °F 30.30 in WNW 21 mph 32 mph 71% 0 in 35.00 W/m2
09:10 -10 °F -16.8 °F 30.30 in WNW 26 mph 32 mph 71% 0 in 42.00 W/m2
09:15 -9.9 °F -16.7 °F 30.31 in NW 22 mph 31 mph 71% 0 in 51.00 W/m2
09:20 -9.9 °F -16.7 °F 30.31 in NW 21 mph 31 mph 71% 0 in 60.00 W/m2
09:25 -9.9 °F -16.7 °F 30.31 in West 27 mph 31 mph 71% 0 in 67.00 W/m2
09:30 -9.8 °F -16.6 °F 30.32 in WNW 16 mph 31 mph 71% 0 in 72.00 W/m2
09:35 -9.7 °F -16.5 °F 30.32 in NW 15 mph 32 mph 71% 0 in 83.00 W/m2
09:40 -9.5 °F -16.3 °F 30.32 in NW 20 mph 32 mph 71% 0 in 95.00 W/m2
09:45 -9.5 °F -16.6 °F 30.32 in West 19 mph 31 mph 70% 0 in 111.00 W/m2
09:50 -9.3 °F -16.4 °F 30.32 in WNW 22 mph 36 mph 70% 0 in 127.00 W/m2
09:55 -9.3 °F -16.2 °F 30.32 in WNW 23 mph 36 mph 71% 0 in 146.00 W/m2
10:00 -9.2 °F -16.3 °F 30.32 in West 27 mph 36 mph 70% 0 in 162.00 W/m2
10:05 -9.1 °F -16.2 °F 30.32 in West 30 mph 40 mph 70% 0 in 171.00 W/m2
10:10 -9 °F -16.1 °F 30.32 in WNW 21 mph 40 mph 70% 0 in 185.00 W/m2
10:15 -8.9 °F -16 °F 30.31 in WNW 29 mph 41 mph 70% 0 in 199.00 W/m2
10:20 -8.9 °F -16 °F 30.32 in WNW 22 mph 41 mph 70% 0 in 211.00 W/m2
10:25 -8.9 °F -16 °F 30.32 in West 33 mph 41 mph 70% 0 in 225.00 W/m2
10:30 -8.8 °F -16 °F 30.32 in West 30 mph 42 mph 70% 0 in 239.00 W/m2
10:35 -8.6 °F -15.8 °F 30.33 in WNW 34 mph 45 mph 70% 0 in 251.00 W/m2
10:40 -8.5 °F -15.7 °F 30.33 in West 31 mph 45 mph 70% 0 in 260.00 W/m2
10:45 -8.4 °F -15.9 °F 30.34 in West 26 mph 45 mph 69% 0 in 269.00 W/m2
10:50 -8.3 °F -15.8 °F 30.34 in WNW 31 mph 45 mph 69% 0 in 281.00 W/m2
10:55 -8.3 °F -15.8 °F 30.34 in WNW 28 mph 42 mph 69% 0 in 288.00 W/m2
11:00 -8.1 °F -15.6 °F 30.34 in NW 20 mph 38 mph 69% 0 in 299.00 W/m2
11:05 -8.1 °F -15.6 °F 30.34 in WNW 29 mph 39 mph 69% 0 in 306.00 W/m2
11:10 -8 °F -15.5 °F 30.34 in West 30 mph 41 mph 69% 0 in 315.00 W/m2
11:15 -8 °F -15.5 °F 30.35 in WNW 28 mph 41 mph 69% 0 in 323.00 W/m2
11:20 -7.9 °F -15.4 °F 30.35 in NW 20 mph 41 mph 69% 0 in 327.00 W/m2
11:25 -7.7 °F -15.2 °F 30.35 in NW 25 mph 41 mph 69% 0 in 334.00 W/m2
11:30 -7.5 °F -15 °F 30.35 in WNW 28 mph 37 mph 69% 0 in 343.00 W/m2
11:35 -7.5 °F -15 °F 30.35 in WNW 23 mph 37 mph 69% 0 in 350.00 W/m2
11:40 -7.4 °F -14.9 °F 30.35 in NW 21 mph 40 mph 69% 0 in 355.00 W/m2
11:45 -7.1 °F -14.6 °F 30.36 in WNW 34 mph 40 mph 69% 0 in 360.00 W/m2
Bismarck, North Dakota, USA
Compliments of Weather Underground - 2 mb